sensor_id;sensor_type;location;lat;lon;timestamp;pressure;altitude;pressure_sealevel;temperature;humidity
20656;BME280;10487;53.320;8.672;2023-02-02T00:02:51;101144.53;;;3.93;61.58
20656;BME280;10487;53.320;8.672;2023-02-02T00:05:53;101149.81;;;3.93;61.65
20656;BME280;10487;53.320;8.672;2023-02-02T00:08:56;101143.63;;;3.94;61.56
20656;BME280;10487;53.320;8.672;2023-02-02T00:11:59;101143.63;;;3.94;61.51
20656;BME280;10487;53.320;8.672;2023-02-02T00:15:01;101145.47;;;3.92;61.43
20656;BME280;10487;53.320;8.672;2023-02-02T00:18:03;101155.19;;;3.92;61.53
20656;BME280;10487;53.320;8.672;2023-02-02T00:21:04;101154.38;;;3.90;61.48
20656;BME280;10487;53.320;8.672;2023-02-02T00:24:07;101154.41;;;3.88;61.57
20656;BME280;10487;53.320;8.672;2023-02-02T00:27:09;101157.13;;;3.87;61.45
20656;BME280;10487;53.320;8.672;2023-02-02T00:30:11;101152.84;;;3.84;61.41
20656;BME280;10487;53.320;8.672;2023-02-02T00:33:13;101159.97;;;3.82;61.38
20656;BME280;10487;53.320;8.672;2023-02-02T00:36:15;101160.00;;;3.81;61.49
20656;BME280;10487;53.320;8.672;2023-02-02T00:39:22;101160.88;;;3.81;61.60
20656;BME280;10487;53.320;8.672;2023-02-02T00:42:26;101166.25;;;3.78;61.53
20656;BME280;10487;53.320;8.672;2023-02-02T00:45:28;101174.19;;;3.78;61.55
20656;BME280;10487;53.320;8.672;2023-02-02T00:48:30;101168.91;;;3.78;61.61
20656;BME280;10487;53.320;8.672;2023-02-02T00:51:32;101172.47;;;3.77;61.57
20656;BME280;10487;53.320;8.672;2023-02-02T00:54:34;101181.31;;;3.76;61.55
20656;BME280;10487;53.320;8.672;2023-02-02T00:57:35;101185.69;;;3.77;61.36
20656;BME280;10487;53.320;8.672;2023-02-02T01:00:37;101183.03;;;3.77;61.54
20656;BME280;10487;53.320;8.672;2023-02-02T01:03:38;101190.09;;;3.77;61.68
20656;BME280;10487;53.320;8.672;2023-02-02T01:06:40;101196.22;;;3.77;61.37
20656;BME280;10487;53.320;8.672;2023-02-02T01:09:42;101209.44;;;3.77;61.43
20656;BME280;10487;53.320;8.672;2023-02-02T01:12:44;101202.41;;;3.76;61.57
20656;BME280;10487;53.320;8.672;2023-02-02T01:15:45;101195.38;;;3.77;61.58
20656;BME280;10487;53.320;8.672;2023-02-02T01:18:48;101198.88;;;3.77;61.62
20656;BME280;10487;53.320;8.672;2023-02-02T01:21:49;101201.44;;;3.79;61.46
20656;BME280;10487;53.320;8.672;2023-02-02T01:24:51;101196.22;;;3.77;61.63
20656;BME280;10487;53.320;8.672;2023-02-02T01:27:53;101191.00;;;3.76;61.39
20656;BME280;10487;53.320;8.672;2023-02-02T01:30:55;101199.84;;;3.75;61.74
20656;BME280;10487;53.320;8.672;2023-02-02T01:33:57;101206.00;;;3.75;61.61
20656;BME280;10487;53.320;8.672;2023-02-02T01:36:58;101210.41;;;3.75;61.59
20656;BME280;10487;53.320;8.672;2023-02-02T01:40:00;101210.41;;;3.75;61.44
20656;BME280;10487;53.320;8.672;2023-02-02T01:43:02;101216.59;;;3.74;61.47
20656;BME280;10487;53.320;8.672;2023-02-02T01:46:03;101215.72;;;3.73;61.51
20656;BME280;10487;53.320;8.672;2023-02-02T01:49:06;101221.00;;;3.73;61.56
20656;BME280;10487;53.320;8.672;2023-02-02T01:52:10;101221.06;;;3.72;61.64
20656;BME280;10487;53.320;8.672;2023-02-02T01:55:14;101237.78;;;3.72;61.47
20656;BME280;10487;53.320;8.672;2023-02-02T01:58:30;101233.41;;;3.71;61.40
20656;BME280;10487;53.320;8.672;2023-02-02T02:01:33;101243.16;;;3.69;61.55
20656;BME280;10487;53.320;8.672;2023-02-02T02:04:35;101246.75;;;3.68;61.70
20656;BME280;10487;53.320;8.672;2023-02-02T02:07:39;101237.09;;;3.67;61.66
20656;BME280;10487;53.320;8.672;2023-02-02T02:10:43;101240.59;;;3.68;61.76
20656;BME280;10487;53.320;8.672;2023-02-02T02:13:46;101245.00;;;3.67;61.65
20656;BME280;10487;53.320;8.672;2023-02-02T02:17:15;101241.56;;;3.65;61.50
20656;BME280;10487;53.320;8.672;2023-02-02T02:20:53;101251.25;;;3.65;61.49
20656;BME280;10487;53.320;8.672;2023-02-02T02:32:10;101267.31;;;3.59;61.47
20656;BME280;10487;53.320;8.672;2023-02-02T02:38:35;101272.72;;;3.56;61.66
20656;BME280;10487;53.320;8.672;2023-02-02T02:41:43;101287.69;;;3.55;61.63
20656;BME280;10487;53.320;8.672;2023-02-02T02:44:48;101281.47;;;3.56;61.48
20656;BME280;10487;53.320;8.672;2023-02-02T02:47:50;101279.69;;;3.57;61.80
20656;BME280;10487;53.320;8.672;2023-02-02T02:50:52;101285.91;;;3.56;61.65
20656;BME280;10487;53.320;8.672;2023-02-02T02:53:54;101284.97;;;3.57;61.40
20656;BME280;10487;53.320;8.672;2023-02-02T02:57:29;101296.47;;;3.56;61.75
20656;BME280;10487;53.320;8.672;2023-02-02T03:00:45;101297.44;;;3.53;61.50
20656;BME280;10487;53.320;8.672;2023-02-02T03:04:31;101293.06;;;3.52;61.54
20656;BME280;10487;53.320;8.672;2023-02-02T03:07:45;101299.38;;;3.48;61.56
20656;BME280;10487;53.320;8.672;2023-02-02T03:10:47;101300.34;;;3.45;61.53
20656;BME280;10487;53.320;8.672;2023-02-02T03:13:49;101304.78;;;3.43;61.72
20656;BME280;10487;53.320;8.672;2023-02-02T03:16:51;101316.31;;;3.41;61.66
20656;BME280;10487;53.320;8.672;2023-02-02T03:19:53;101314.63;;;3.40;61.56
20656;BME280;10487;53.320;8.672;2023-02-02T03:22:54;101315.59;;;3.37;61.57
20656;BME280;10487;53.320;8.672;2023-02-02T03:25:56;101319.09;;;3.38;61.67
20656;BME280;10487;53.320;8.672;2023-02-02T03:28:59;101319.09;;;3.38;61.70
20656;BME280;10487;53.320;8.672;2023-02-02T03:32:00;101316.44;;;3.38;61.56
20656;BME280;10487;53.320;8.672;2023-02-02T03:35:02;101313.91;;;3.35;61.70
20656;BME280;10487;53.320;8.672;2023-02-02T03:38:04;101318.38;;;3.33;61.53
20656;BME280;10487;53.320;8.672;2023-02-02T03:41:06;101326.31;;;3.31;61.75
20656;BME280;10487;53.320;8.672;2023-02-02T03:44:07;101335.19;;;3.30;61.59
20656;BME280;10487;53.320;8.672;2023-02-02T03:47:09;101327.28;;;3.29;61.74
20656;BME280;10487;53.320;8.672;2023-02-02T03:50:11;101339.69;;;3.27;61.52
20656;BME280;10487;53.320;8.672;2023-02-02T03:53:12;101347.66;;;3.24;61.69
20656;BME280;10487;53.320;8.672;2023-02-02T03:56:14;101343.34;;;3.21;61.57
20656;BME280;10487;53.320;8.672;2023-02-02T03:59:17;101343.47;;;3.18;61.64
20656;BME280;10487;53.320;8.672;2023-02-02T04:02:18;101356.75;;;3.15;61.74
20656;BME280;10487;53.320;8.672;2023-02-02T04:05:20;101357.72;;;3.13;61.42
20656;BME280;10487;53.320;8.672;2023-02-02T04:08:21;101358.63;;;3.12;61.40
20656;BME280;10487;53.320;8.672;2023-02-02T04:11:23;101358.69;;;3.10;61.51
20656;BME280;10487;53.320;8.672;2023-02-02T04:14:24;101369.31;;;3.07;61.59
20656;BME280;10487;53.320;8.672;2023-02-02T04:17:26;101372.06;;;3.04;61.60
20656;BME280;10487;53.320;8.672;2023-02-02T04:20:28;101373.03;;;3.02;61.50
20656;BME280;10487;53.320;8.672;2023-02-02T04:23:30;101376.63;;;2.99;61.55
20656;BME280;10487;53.320;8.672;2023-02-02T04:26:31;101382.81;;;2.98;61.82
20656;BME280;10487;53.320;8.672;2023-02-02T04:29:33;101381.88;;;2.99;61.76
20656;BME280;10487;53.320;8.672;2023-02-02T04:32:34;101384.59;;;2.98;61.70
20656;BME280;10487;53.320;8.672;2023-02-02T04:35:36;101375.78;;;2.99;61.63
20656;BME280;10487;53.320;8.672;2023-02-02T04:38:38;101394.25;;;2.99;61.74
20656;BME280;10487;53.320;8.672;2023-02-02T04:41:39;101401.22;;;3.00;61.74
20656;BME280;10487;53.320;8.672;2023-02-02T04:44:41;101389.78;;;3.01;61.64
20656;BME280;10487;53.320;8.672;2023-02-02T04:47:44;101388.84;;;3.02;61.38
20656;BME280;10487;53.320;8.672;2023-02-02T04:50:45;101395.03;;;3.01;61.66
20656;BME280;10487;53.320;8.672;2023-02-02T04:53:47;101397.63;;;3.02;61.67
20656;BME280;10487;53.320;8.672;2023-02-02T04:56:48;101396.75;;;3.02;61.81
20656;BME280;10487;53.320;8.672;2023-02-02T04:59:50;101396.81;;;3.00;61.66
20656;BME280;10487;53.320;8.672;2023-02-02T05:02:52;101400.31;;;3.01;61.80
20656;BME280;10487;53.320;8.672;2023-02-02T05:06:02;101402.03;;;3.02;61.79
20656;BME280;10487;53.320;8.672;2023-02-02T05:09:04;101399.50;;;2.99;61.54
20656;BME280;10487;53.320;8.672;2023-02-02T05:12:06;101403.03;;;2.98;61.81
20656;BME280;10487;53.320;8.672;2023-02-02T05:15:08;101406.56;;;2.97;61.72
20656;BME280;10487;53.320;8.672;2023-02-02T05:18:09;101406.56;;;2.97;61.83
20656;BME280;10487;53.320;8.672;2023-02-02T05:21:11;101407.50;;;2.96;61.88
20656;BME280;10487;53.320;8.672;2023-02-02T05:24:13;101411.91;;;2.95;61.81
20656;BME280;10487;53.320;8.672;2023-02-02T05:27:14;101404.91;;;2.94;61.84
20656;BME280;10487;53.320;8.672;2023-02-02T05:30:16;101415.50;;;2.93;61.69
20656;BME280;10487;53.320;8.672;2023-02-02T05:33:18;101412.94;;;2.91;61.93
20656;BME280;10487;53.320;8.672;2023-02-02T05:36:20;101421.75;;;2.90;61.59
20656;BME280;10487;53.320;8.672;2023-02-02T05:39:21;101427.81;;;2.92;61.88
20656;BME280;10487;53.320;8.672;2023-02-02T05:42:23;101430.44;;;2.94;61.87
20656;BME280;10487;53.320;8.672;2023-02-02T05:45:25;101438.22;;;2.97;62.07
20656;BME280;10487;53.320;8.672;2023-02-02T05:48:27;101439.94;;;2.98;61.68
20656;BME280;10487;53.320;8.672;2023-02-02T05:51:31;101444.34;;;2.99;61.82
20656;BME280;10487;53.320;8.672;2023-02-02T05:54:33;101441.69;;;2.99;61.91
20656;BME280;10487;53.320;8.672;2023-02-02T05:57:35;101442.53;;;2.99;61.65
20656;BME280;10487;53.320;8.672;2023-02-02T06:00:36;101446.91;;;3.00;61.42
20656;BME280;10487;53.320;8.672;2023-02-02T06:03:38;101446.00;;;3.01;61.54
20656;BME280;10487;53.320;8.672;2023-02-02T06:06:40;101452.31;;;3.23;62.50
20656;BME280;10487;53.320;8.672;2023-02-02T06:09:42;101457.94;;;3.40;62.32
20656;BME280;10487;53.320;8.672;2023-02-02T06:12:44;101462.28;;;3.41;61.74
20656;BME280;10487;53.320;8.672;2023-02-02T06:15:45;101454.50;;;3.38;61.47
20656;BME280;10487;53.320;8.672;2023-02-02T06:18:47;101456.44;;;3.33;61.22
20656;BME280;10487;53.320;8.672;2023-02-02T06:21:49;101464.47;;;3.29;61.81
20656;BME280;10487;53.320;8.672;2023-02-02T06:24:50;101465.44;;;3.25;61.38
20656;BME280;10487;53.320;8.672;2023-02-02T06:27:55;101469.13;;;3.19;61.63
20656;BME280;10487;53.320;8.672;2023-02-02T06:31:03;101473.75;;;3.13;61.41
20656;BME280;10487;53.320;8.672;2023-02-02T06:34:05;101480.06;;;3.07;61.66
20656;BME280;10487;53.320;8.672;2023-02-02T06:37:06;101485.50;;;3.03;61.37
20656;BME280;10487;53.320;8.672;2023-02-02T06:40:08;101487.41;;;2.98;61.43
20656;BME280;10487;53.320;8.672;2023-02-02T06:43:10;101497.22;;;2.93;61.59
20656;BME280;10487;53.320;8.672;2023-02-02T06:46:15;101499.09;;;2.89;61.51
20656;BME280;10487;53.320;8.672;2023-02-02T06:49:17;101498.34;;;2.86;61.65
20656;BME280;10487;53.320;8.672;2023-02-02T06:52:19;101495.84;;;2.81;61.66
20656;BME280;10487;53.320;8.672;2023-02-02T06:55:21;101498.69;;;3.03;61.51
20656;BME280;10487;53.320;8.672;2023-02-02T06:58:23;101507.59;;;2.99;61.37
20656;BME280;10487;53.320;8.672;2023-02-02T07:01:24;101501.69;;;2.91;61.28
20656;BME280;10487;53.320;8.672;2023-02-02T07:04:26;101503.69;;;2.82;61.08
20656;BME280;10487;53.320;8.672;2023-02-02T07:07:32;101502.16;;;2.75;61.54
20656;BME280;10487;53.320;8.672;2023-02-02T07:10:36;101505.81;;;2.70;61.44
20656;BME280;10487;53.320;8.672;2023-02-02T07:13:58;101506.97;;;2.61;61.71
20656;BME280;10487;53.320;8.672;2023-02-02T07:17:00;101518.53;;;2.56;61.46
20656;BME280;10487;53.320;8.672;2023-02-02T07:20:02;101516.94;;;2.50;61.81
20656;BME280;10487;53.320;8.672;2023-02-02T07:23:03;101525.78;;;2.48;61.71
20656;BME280;10487;53.320;8.672;2023-02-02T07:26:07;101530.25;;;2.44;61.80
20656;BME280;10487;53.320;8.672;2023-02-02T07:29:11;101530.31;;;2.43;61.57
20656;BME280;10487;53.320;8.672;2023-02-02T07:32:14;101529.56;;;2.39;61.64
20656;BME280;10487;53.320;8.672;2023-02-02T07:35:16;101537.47;;;2.38;61.87
20656;BME280;10487;53.320;8.672;2023-02-02T07:38:18;101535.78;;;2.35;61.97
20656;BME280;10487;53.320;8.672;2023-02-02T07:41:20;101542.88;;;2.33;61.70
20656;BME280;10487;53.320;8.672;2023-02-02T07:44:22;101550.78;;;2.33;61.72
20656;BME280;10487;53.320;8.672;2023-02-02T07:47:23;101554.31;;;2.32;61.86
20656;BME280;10487;53.320;8.672;2023-02-02T07:50:27;101559.63;;;2.31;61.68
20656;BME280;10487;53.320;8.672;2023-02-02T07:53:30;101561.38;;;2.30;61.70
20656;BME280;10487;53.320;8.672;2023-02-02T07:56:32;101574.56;;;2.30;61.96
20656;BME280;10487;53.320;8.672;2023-02-02T07:59:34;101575.38;;;2.32;61.85
20656;BME280;10487;53.320;8.672;2023-02-02T08:02:35;101578.88;;;2.33;61.99
20656;BME280;10487;53.320;8.672;2023-02-02T08:05:37;101577.94;;;2.35;61.75
20656;BME280;10487;53.320;8.672;2023-02-02T08:08:39;101574.34;;;2.39;62.11
20656;BME280;10487;53.320;8.672;2023-02-02T08:11:40;101585.59;;;2.44;61.94
20656;BME280;10487;53.320;8.672;2023-02-02T08:14:42;101587.16;;;2.51;62.21
20656;BME280;10487;53.320;8.672;2023-02-02T08:17:44;101596.03;;;2.79;62.21
20656;BME280;10487;53.320;8.672;2023-02-02T08:20:46;101601.09;;;2.87;61.83
20656;BME280;10487;53.320;8.672;2023-02-02T08:23:50;101609.88;;;2.88;61.84
20656;BME280;10487;53.320;8.672;2023-02-02T08:26:52;101611.59;;;2.89;61.83
20656;BME280;10487;53.320;8.672;2023-02-02T08:29:54;101619.53;;;2.87;61.96
20656;BME280;10487;53.320;8.672;2023-02-02T08:32:55;101621.22;;;2.90;61.79
20656;BME280;10487;53.320;8.672;2023-02-02T08:35:57;101626.41;;;2.93;61.77
20656;BME280;10487;53.320;8.672;2023-02-02T08:39:11;101628.09;;;2.95;61.79
20656;BME280;10487;53.320;8.672;2023-02-02T08:42:13;101631.56;;;2.97;62.03
20656;BME280;10487;53.320;8.672;2023-02-02T08:45:14;101636.75;;;3.00;61.76
20656;BME280;10487;53.320;8.672;2023-02-02T08:48:36;101641.06;;;3.03;62.09
20656;BME280;10487;53.320;8.672;2023-02-02T08:51:39;101643.66;;;3.04;62.08
20656;BME280;10487;53.320;8.672;2023-02-02T08:54:40;101651.56;;;3.04;61.88
20656;BME280;10487;53.320;8.672;2023-02-02T08:57:42;101665.59;;;3.06;61.97
20656;BME280;10487;53.320;8.672;2023-02-02T09:00:43;101656.75;;;3.07;61.96
20656;BME280;10487;53.320;8.672;2023-02-02T09:03:46;101660.22;;;3.09;61.84
20656;BME280;10487;53.320;8.672;2023-02-02T09:06:47;101661.91;;;3.12;61.75
20656;BME280;10487;53.320;8.672;2023-02-02T09:09:49;101673.25;;;3.14;62.12
20656;BME280;10487;53.320;8.672;2023-02-02T09:12:52;101662.63;;;3.17;62.02
20656;BME280;10487;53.320;8.672;2023-02-02T09:15:58;101681.00;;;3.20;61.78
20656;BME280;10487;53.320;8.672;2023-02-02T09:19:00;101684.44;;;3.23;61.88
20656;BME280;10487;53.320;8.672;2023-02-02T09:22:02;101689.63;;;3.28;61.90
20656;BME280;10487;53.320;8.672;2023-02-02T09:25:05;101691.31;;;3.30;61.98
20656;BME280;10487;53.320;8.672;2023-02-02T09:28:06;101696.44;;;3.35;61.88
20656;BME280;10487;53.320;8.672;2023-02-02T09:31:08;101698.94;;;3.39;61.78
20656;BME280;10487;53.320;8.672;2023-02-02T09:34:12;101704.06;;;3.44;62.06
20656;BME280;10487;53.320;8.672;2023-02-02T09:37:14;101710.09;;;3.49;61.80
20656;BME280;10487;53.320;8.672;2023-02-02T09:40:19;101718.72;;;3.56;61.83
20656;BME280;10487;53.320;8.672;2023-02-02T09:43:49;101724.66;;;3.62;61.98
20656;BME280;10487;53.320;8.672;2023-02-02T09:57:16;101733.63;;;4.13;61.77
20656;BME280;10487;53.320;8.672;2023-02-02T10:00:31;101735.69;;;4.32;62.07
20656;BME280;10487;53.320;8.672;2023-02-02T10:06:47;101726.47;;;4.45;61.89
20656;BME280;10487;53.320;8.672;2023-02-02T10:10:02;101735.94;;;4.50;61.81
20656;BME280;10487;53.320;8.672;2023-02-02T10:13:10;101747.19;;;4.57;61.75
20656;BME280;10487;53.320;8.672;2023-02-02T10:16:18;101753.13;;;4.63;61.69
20656;BME280;10487;53.320;8.672;2023-02-02T10:19:23;101762.56;;;4.72;61.70
20656;BME280;10487;53.320;8.672;2023-02-02T10:22:32;101756.94;;;4.81;61.60
20656;BME280;10487;53.320;8.672;2023-02-02T10:25:34;101758.38;;;4.91;61.66
20656;BME280;10487;53.320;8.672;2023-02-02T10:32:19;101761.28;;;5.08;61.42
20656;BME280;10487;53.320;8.672;2023-02-02T10:38:52;101770.56;;;5.21;61.46
20656;BME280;10487;53.320;8.672;2023-02-02T10:45:28;101785.78;;;5.39;61.50
20656;BME280;10487;53.320;8.672;2023-02-02T10:48:34;101789.81;;;5.50;61.34
20656;BME280;10487;53.320;8.672;2023-02-02T10:51:36;101785.13;;;5.58;61.31
20656;BME280;10487;53.320;8.672;2023-02-02T11:01:12;101795.75;;;5.81;61.39
20656;BME280;10487;53.320;8.672;2023-02-02T11:04:20;101797.91;;;5.93;61.32
20656;BME280;10487;53.320;8.672;2023-02-02T11:07:41;101806.44;;;6.01;61.25
20656;BME280;10487;53.320;8.672;2023-02-02T11:10:45;101806.31;;;6.04;61.08
20656;BME280;10487;53.320;8.672;2023-02-02T11:14:03;101808.06;;;6.05;61.10
20656;BME280;10487;53.320;8.672;2023-02-02T11:17:31;101812.72;;;5.98;61.07
20656;BME280;10487;53.320;8.672;2023-02-02T11:20:34;101812.91;;;5.94;61.05
20656;BME280;10487;53.320;8.672;2023-02-02T11:23:39;101812.06;;;5.92;61.19
20656;BME280;10487;53.320;8.672;2023-02-02T11:29:56;101818.78;;;5.79;61.08
20656;BME280;10487;53.320;8.672;2023-02-02T11:33:30;101821.94;;;5.88;61.54
20656;BME280;10487;53.320;8.672;2023-02-02T11:36:33;101822.63;;;5.93;61.35
20656;BME280;10487;53.320;8.672;2023-02-02T11:39:35;101824.47;;;5.91;61.42
20656;BME280;10487;53.320;8.672;2023-02-02T11:42:43;101820.19;;;5.87;61.19
20656;BME280;10487;53.320;8.672;2023-02-02T11:45:52;101825.59;;;5.84;61.21
20656;BME280;10487;53.320;8.672;2023-02-02T11:48:59;101818.63;;;5.82;61.19
20656;BME280;10487;53.320;8.672;2023-02-02T11:52:04;101826.72;;;5.79;61.25
20656;BME280;10487;53.320;8.672;2023-02-02T11:55:15;101834.78;;;5.76;61.32
20656;BME280;10487;53.320;8.672;2023-02-02T11:58:22;101825.06;;;5.76;61.36
20656;BME280;10487;53.320;8.672;2023-02-02T12:01:33;101827.41;;;5.84;61.49
20656;BME280;10487;53.320;8.672;2023-02-02T12:04:35;101823.44;;;5.95;61.43
20656;BME280;10487;53.320;8.672;2023-02-02T12:07:38;101828.19;;;6.09;61.40
20656;BME280;10487;53.320;8.672;2023-02-02T12:10:46;101824.28;;;6.19;61.18
20656;BME280;10487;53.320;8.672;2023-02-02T12:20:53;101828.56;;;6.23;61.08
20656;BME280;10487;53.320;8.672;2023-02-02T12:24:34;101822.69;;;6.15;60.94
20656;BME280;10487;53.320;8.672;2023-02-02T12:27:59;101823.88;;;6.06;60.91
20656;BME280;10487;53.320;8.672;2023-02-02T12:37:43;101820.16;;;5.89;61.29
20656;BME280;10487;53.320;8.672;2023-02-02T12:54:51;101810.47;;;5.88;61.26
20656;BME280;10487;53.320;8.672;2023-02-02T12:58:20;101807.91;;;5.86;61.26
20656;BME280;10487;53.320;8.672;2023-02-02T13:08:11;101807.28;;;6.01;61.36
20656;BME280;10487;53.320;8.672;2023-02-02T13:11:27;101791.34;;;6.03;61.08
20656;BME280;10487;53.320;8.672;2023-02-02T13:14:40;101805.59;;;6.00;61.05
20656;BME280;10487;53.320;8.672;2023-02-02T13:17:53;101807.44;;;5.98;61.05
20656;BME280;10487;53.320;8.672;2023-02-02T13:21:01;101807.47;;;5.97;61.16
20656;BME280;10487;53.320;8.672;2023-02-02T13:24:04;101811.06;;;5.96;60.97
20656;BME280;10487;53.320;8.672;2023-02-02T13:27:12;101806.75;;;5.93;61.22
20656;BME280;10487;53.320;8.672;2023-02-02T13:30:36;101804.13;;;5.92;60.86
20656;BME280;10487;53.320;8.672;2023-02-02T13:33:40;101814.88;;;5.89;60.95
20656;BME280;10487;53.320;8.672;2023-02-02T13:36:49;101811.34;;;5.88;61.11
20656;BME280;10487;53.320;8.672;2023-02-02T13:40:04;101821.97;;;5.87;61.24
20656;BME280;10487;53.320;8.672;2023-02-02T13:50:02;101828.31;;;5.83;61.12
20656;BME280;10487;53.320;8.672;2023-02-02T14:00:11;101826.50;;;6.08;61.16
20656;BME280;10487;53.320;8.672;2023-02-02T14:03:27;101832.41;;;6.15;61.00
20656;BME280;10487;53.320;8.672;2023-02-02T14:06:52;101828.66;;;6.20;61.00
20656;BME280;10487;53.320;8.672;2023-02-02T14:09:57;101833.75;;;6.26;60.87
20656;BME280;10487;53.320;8.672;2023-02-02T14:28:48;101840.72;;;6.50;60.46
20656;BME280;10487;53.320;8.672;2023-02-02T14:31:53;101849.50;;;6.52;60.67
20656;BME280;10487;53.320;8.672;2023-02-02T14:45:36;101852.38;;;6.69;60.46
20656;BME280;10487;53.320;8.672;2023-02-02T14:48:42;101857.59;;;6.71;60.49
20656;BME280;10487;53.320;8.672;2023-02-02T14:51:50;101863.78;;;6.72;60.42
20656;BME280;10487;53.320;8.672;2023-02-02T14:54:54;101855.00;;;6.69;60.53
20656;BME280;10487;53.320;8.672;2023-02-02T14:57:58;101863.84;;;6.70;60.30
20656;BME280;10487;53.320;8.672;2023-02-02T15:01:06;101862.97;;;6.69;60.52
20656;BME280;10487;53.320;8.672;2023-02-02T15:11:00;101865.72;;;6.66;60.50
20656;BME280;10487;53.320;8.672;2023-02-02T15:14:25;101868.84;;;6.78;60.93
20656;BME280;10487;53.320;8.672;2023-02-02T15:17:43;101874.03;;;6.81;60.46
20656;BME280;10487;53.320;8.672;2023-02-02T15:20:52;101884.69;;;6.79;60.57
20656;BME280;10487;53.320;8.672;2023-02-02T15:23:56;101900.72;;;6.76;60.48
20656;BME280;10487;53.320;8.672;2023-02-02T15:26:58;101899.91;;;6.74;60.57
20656;BME280;10487;53.320;8.672;2023-02-02T15:30:03;101906.22;;;6.72;60.66
20656;BME280;10487;53.320;8.672;2023-02-02T15:33:44;101897.53;;;6.68;60.43
20656;BME280;10487;53.320;8.672;2023-02-02T15:36:51;101908.22;;;6.65;60.69
20656;BME280;10487;53.320;8.672;2023-02-02T15:39:55;101902.97;;;6.63;60.56
20656;BME280;10487;53.320;8.672;2023-02-02T15:43:01;101911.97;;;6.59;60.68
20656;BME280;10487;53.320;8.672;2023-02-02T15:46:08;101909.38;;;6.58;60.58
20656;BME280;10487;53.320;8.672;2023-02-02T15:52:44;101919.31;;;6.53;60.50
20656;BME280;10487;53.320;8.672;2023-02-02T15:55:47;101916.69;;;6.51;60.49
20656;BME280;10487;53.320;8.672;2023-02-02T15:58:51;101921.19;;;6.49;60.62
20656;BME280;10487;53.320;8.672;2023-02-02T16:08:38;101935.50;;;7.75;61.15
20656;BME280;10487;53.320;8.672;2023-02-02T16:11:41;101934.25;;;7.84;60.71
20656;BME280;10487;53.320;8.672;2023-02-02T16:14:53;101937.31;;;7.75;60.61
20656;BME280;10487;53.320;8.672;2023-02-02T16:17:59;101931.78;;;7.59;60.46
20656;BME280;10487;53.320;8.672;2023-02-02T16:21:05;101935.09;;;7.44;60.39
20656;BME280;10487;53.320;8.672;2023-02-02T16:24:14;101937.50;;;7.28;60.55
20656;BME280;10487;53.320;8.672;2023-02-02T16:27:21;101933.56;;;7.17;60.62
20656;BME280;10487;53.320;8.672;2023-02-02T16:30:28;101944.69;;;7.05;60.69
20656;BME280;10487;53.320;8.672;2023-02-02T16:33:41;101952.19;;;6.94;60.58
20656;BME280;10487;53.320;8.672;2023-02-02T16:36:43;101950.00;;;6.83;60.64
20656;BME280;10487;53.320;8.672;2023-02-02T16:43:27;101951.56;;;6.64;60.65
20656;BME280;10487;53.320;8.672;2023-02-02T16:46:46;101942.22;;;6.54;60.43
20656;BME280;10487;53.320;8.672;2023-02-02T16:49:54;101945.25;;;6.45;60.48
20656;BME280;10487;53.320;8.672;2023-02-02T16:53:20;101933.25;;;6.35;60.47
20656;BME280;10487;53.320;8.672;2023-02-02T16:56:34;101937.94;;;6.28;60.33
20656;BME280;10487;53.320;8.672;2023-02-02T16:59:36;101942.63;;;6.20;60.48
20656;BME280;10487;53.320;8.672;2023-02-02T17:02:40;101944.59;;;6.15;60.47
20656;BME280;10487;53.320;8.672;2023-02-02T17:08:47;101942.41;;;6.01;60.46
20656;BME280;10487;53.320;8.672;2023-02-02T17:12:01;101953.25;;;5.95;60.55
20656;BME280;10487;53.320;8.672;2023-02-02T17:18:17;101952.56;;;5.90;60.47
20656;BME280;10487;53.320;8.672;2023-02-02T17:21:20;101953.59;;;5.86;60.34
20656;BME280;10487;53.320;8.672;2023-02-02T17:24:23;101955.41;;;5.84;60.49
20656;BME280;10487;53.320;8.672;2023-02-02T17:27:27;101947.59;;;5.81;60.47
20656;BME280;10487;53.320;8.672;2023-02-02T17:30:29;101958.22;;;5.80;60.47
20656;BME280;10487;53.320;8.672;2023-02-02T17:33:32;101953.03;;;5.77;60.41
20656;BME280;10487;53.320;8.672;2023-02-02T17:36:34;101948.75;;;5.73;60.33
20656;BME280;10487;53.320;8.672;2023-02-02T17:39:36;101954.22;;;5.68;60.46
20656;BME280;10487;53.320;8.672;2023-02-02T17:42:38;101952.53;;;5.66;60.35
20656;BME280;10487;53.320;8.672;2023-02-02T17:45:40;101949.09;;;5.64;60.41
20656;BME280;10487;53.320;8.672;2023-02-02T17:48:43;101932.41;;;5.62;60.31
20656;BME280;10487;53.320;8.672;2023-02-02T17:51:44;101950.09;;;5.60;60.37
20656;BME280;10487;53.320;8.672;2023-02-02T17:54:46;101941.34;;;5.58;60.41
20656;BME280;10487;53.320;8.672;2023-02-02T17:57:49;101939.72;;;5.54;60.30
20656;BME280;10487;53.320;8.672;2023-02-02T18:00:52;101946.84;;;5.52;60.36
20656;BME280;10487;53.320;8.672;2023-02-02T18:03:55;101947.06;;;5.46;60.31
20656;BME280;10487;53.320;8.672;2023-02-02T18:06:57;101946.41;;;5.39;60.35
20656;BME280;10487;53.320;8.672;2023-02-02T18:09:58;101945.69;;;5.34;60.41
20656;BME280;10487;53.320;8.672;2023-02-02T18:13:00;101951.00;;;5.32;60.50
20656;BME280;10487;53.320;8.672;2023-02-02T18:16:05;101933.41;;;5.31;60.51
20656;BME280;10487;53.320;8.672;2023-02-02T18:19:07;101929.97;;;5.29;60.39
20656;BME280;10487;53.320;8.672;2023-02-02T18:22:08;101920.38;;;5.25;60.50
20656;BME280;10487;53.320;8.672;2023-02-02T18:25:10;101917.81;;;5.22;60.42
20656;BME280;10487;53.320;8.672;2023-02-02T18:28:11;101916.22;;;5.18;60.41
20656;BME280;10487;53.320;8.672;2023-02-02T18:31:20;101914.47;;;5.17;60.44
20656;BME280;10487;53.320;8.672;2023-02-02T18:34:28;101915.41;;;5.16;60.54
20656;BME280;10487;53.320;8.672;2023-02-02T18:37:30;101908.38;;;5.15;60.52
20656;BME280;10487;53.320;8.672;2023-02-02T18:40:31;101917.19;;;5.16;60.55
20656;BME280;10487;53.320;8.672;2023-02-02T18:43:33;101901.28;;;5.16;60.35
20656;BME280;10487;53.320;8.672;2023-02-02T18:46:35;101895.00;;;5.45;61.25
20656;BME280;10487;53.320;8.672;2023-02-02T18:49:36;101899.84;;;5.58;60.81